createdAt,value
2023-10-08T00:00:20.853Z,22.10
2023-10-08T00:02:48.351Z,20.33
2023-10-08T00:05:17.811Z,20.88
2023-10-08T00:07:45.228Z,21.08
2023-10-08T00:10:14.661Z,22.65
2023-10-08T00:12:42.021Z,23.08
2023-10-08T00:15:11.785Z,23.65
2023-10-08T00:17:39.280Z,22.17
2023-10-08T00:20:09.780Z,21.75
2023-10-08T00:22:37.569Z,19.67
2023-10-08T00:25:12.803Z,20.48
2023-10-08T00:27:40.801Z,20.02
2023-10-08T00:30:19.229Z,21.73
2023-10-08T00:32:46.958Z,22.23
2023-10-08T00:35:22.017Z,21.67
2023-10-08T00:37:49.857Z,19.05
2023-10-08T00:40:22.854Z,21.85
2023-10-08T00:42:52.365Z,21.50
2023-10-08T00:45:20.445Z,23.20
2023-10-08T00:47:48.679Z,19.98
2023-10-08T00:50:32.602Z,18.60
2023-10-08T00:53:03.151Z,20.40
2023-10-08T00:55:30.809Z,18.27
2023-10-08T00:58:10.117Z,18.67
2023-10-08T01:00:42.232Z,20.70
2023-10-08T01:03:28.509Z,21.67
2023-10-08T01:05:58.541Z,20.92
2023-10-08T01:08:38.115Z,19.67
2023-10-08T01:11:34.869Z,20.92
2023-10-08T01:14:08.723Z,21.50
2023-10-08T01:16:36.195Z,19.85
2023-10-08T01:19:03.724Z,20.30
2023-10-08T01:21:41.590Z,18.58
2023-10-08T01:24:09.195Z,19.67
2023-10-08T01:26:40.867Z,17.63
2023-10-08T01:31:41.613Z,18.88
2023-10-08T01:34:08.897Z,23.08
2023-10-08T01:36:37.485Z,18.33
2023-10-08T01:39:04.929Z,19.95
2023-10-08T01:41:32.438Z,21.98
2023-10-08T01:44:00.623Z,20.67
2023-10-08T01:46:28.881Z,23.50
2023-10-08T01:49:05.203Z,19.98
2023-10-08T01:51:39.751Z,22.83
2023-10-08T01:54:13.473Z,18.42
2023-10-08T01:56:43.272Z,20.17
2023-10-08T01:59:15.458Z,19.88
2023-10-08T02:01:44.792Z,21.27
2023-10-08T02:04:14.144Z,20.02
2023-10-08T02:06:42.055Z,18.25
2023-10-08T02:09:09.470Z,20.55
2023-10-08T02:11:47.016Z,24.27
2023-10-08T02:14:16.792Z,18.75
2023-10-08T02:16:45.894Z,20.65
2023-10-08T02:19:14.545Z,19.45
2023-10-08T02:21:42.163Z,21.42
2023-10-08T02:24:12.533Z,19.25
2023-10-08T02:26:40.833Z,19.50
2023-10-08T02:29:13.738Z,20.90
2023-10-08T02:31:42.552Z,18.85
2023-10-08T02:34:10.901Z,19.27
2023-10-08T02:36:38.685Z,19.50
2023-10-08T02:39:15.876Z,20.27
2023-10-08T02:41:44.154Z,21.60
2023-10-08T02:44:13.472Z,20.42
2023-10-08T02:46:42.487Z,19.38
2023-10-08T02:49:12.671Z,19.00
2023-10-08T02:51:46.325Z,22.60
2023-10-08T02:54:19.324Z,22.02
2023-10-08T02:59:16.497Z,18.70
2023-10-08T03:01:44.068Z,19.10
2023-10-08T03:04:21.116Z,23.33
2023-10-08T03:06:53.501Z,18.17
2023-10-08T03:09:25.792Z,18.90
2023-10-08T03:11:54.251Z,19.15
2023-10-08T03:14:24.380Z,19.65
2023-10-08T03:16:54.077Z,21.80
2023-10-08T03:19:24.497Z,22.70
2023-10-08T03:21:53.336Z,24.35
2023-10-08T03:24:41.546Z,61.35
2023-10-08T03:27:16.625Z,49.85
2023-10-08T03:29:44.223Z,22.10
2023-10-08T03:32:18.589Z,19.50
2023-10-08T03:34:50.643Z,18.77
2023-10-08T03:39:52.756Z,21.15
2023-10-08T03:42:41.509Z,25.63
2023-10-08T03:45:13.262Z,24.42
2023-10-08T03:47:47.962Z,22.48
2023-10-08T03:50:19.159Z,22.13
2023-10-08T03:52:47.966Z,20.37
2023-10-08T03:55:23.109Z,21.92
2023-10-08T03:57:58.488Z,17.73
2023-10-08T04:00:33.145Z,19.85
2023-10-08T04:03:09.732Z,20.98
2023-10-08T04:05:57.325Z,18.08
2023-10-08T04:08:49.011Z,21.08
2023-10-08T04:11:34.932Z,20.42
2023-10-08T04:14:03.994Z,19.58
2023-10-08T04:16:33.291Z,18.63
2023-10-08T04:19:04.830Z,20.02
2023-10-08T04:21:35.348Z,17.30
2023-10-08T04:24:06.822Z,18.73
2023-10-08T04:26:34.341Z,17.33
2023-10-08T04:29:04.078Z,18.00
2023-10-08T04:31:38.095Z,20.00
2023-10-08T04:34:17.846Z,17.85
2023-10-08T04:36:49.610Z,18.73
2023-10-08T04:39:17.381Z,18.23
2023-10-08T04:41:45.090Z,16.45
2023-10-08T04:44:17.058Z,20.42
2023-10-08T04:49:29.309Z,21.63
2023-10-08T04:51:58.591Z,19.25
2023-10-08T04:54:32.430Z,18.10
2023-10-08T04:57:06.287Z,17.98
2023-10-08T04:59:35.165Z,21.42
2023-10-08T05:02:14.067Z,19.17
2023-10-08T05:05:00.589Z,19.27
2023-10-08T05:07:27.944Z,17.55
2023-10-08T05:10:04.263Z,19.17
2023-10-08T05:12:34.544Z,21.00
2023-10-08T05:15:17.564Z,21.33
2023-10-08T05:17:51.766Z,21.48
2023-10-08T05:20:39.280Z,18.73
2023-10-08T05:23:26.730Z,22.33
2023-10-08T05:25:59.723Z,22.17
2023-10-08T05:28:27.414Z,22.40
2023-10-08T05:30:56.601Z,20.30
2023-10-08T05:33:27.087Z,23.35
2023-10-08T05:36:11.273Z,18.77
2023-10-08T05:38:38.942Z,21.52
2023-10-08T05:41:13.972Z,22.08
2023-10-08T05:43:44.137Z,18.83
2023-10-08T05:46:25.793Z,20.08
2023-10-08T05:49:09.652Z,23.50
2023-10-08T05:51:50.889Z,21.05
2023-10-08T05:54:28.887Z,20.83
2023-10-08T05:57:26.123Z,21.60
2023-10-08T05:59:57.065Z,18.98
2023-10-08T06:02:36.375Z,20.08
2023-10-08T06:05:15.722Z,22.63
2023-10-08T06:07:54.279Z,22.60
2023-10-08T06:10:33.077Z,20.67
2023-10-08T06:13:11.520Z,22.65
2023-10-08T06:15:52.706Z,23.30
2023-10-08T06:18:21.366Z,25.40
2023-10-08T06:20:49.817Z,23.40
2023-10-08T06:23:24.446Z,24.50
2023-10-08T06:26:00.188Z,30.67
2023-10-08T06:28:28.374Z,26.30
2023-10-08T06:30:58.134Z,25.90
2023-10-08T06:33:28.526Z,28.67
2023-10-08T06:36:14.773Z,24.60
2023-10-08T06:38:50.201Z,24.52
2023-10-08T06:41:45.687Z,26.58
2023-10-08T06:44:16.770Z,23.48
2023-10-08T06:46:44.272Z,18.57
2023-10-08T06:49:15.809Z,21.98
2023-10-08T06:54:18.568Z,19.63
2023-10-08T06:56:53.632Z,21.67
2023-10-08T06:59:25.258Z,24.95
2023-10-08T07:04:25.411Z,23.48
2023-10-08T07:06:53.071Z,22.52
2023-10-08T07:09:29.132Z,25.83
2023-10-08T07:11:58.165Z,29.73
2023-10-08T07:14:30.259Z,23.55
2023-10-08T07:17:02.722Z,21.55
2023-10-08T07:19:39.892Z,22.90
2023-10-08T07:22:30.513Z,21.38
2023-10-08T07:24:58.628Z,20.33
2023-10-08T07:27:33.702Z,19.48
2023-10-08T07:30:04.346Z,21.02
2023-10-08T07:32:32.374Z,22.80
2023-10-08T07:35:19.139Z,16.73
2023-10-08T07:37:48.227Z,22.10
2023-10-08T07:40:16.469Z,20.23
2023-10-08T07:42:45.263Z,18.73
2023-10-08T07:45:19.183Z,18.10
2023-10-08T07:47:46.971Z,18.45
2023-10-08T07:50:14.600Z,15.82
2023-10-08T07:52:45.762Z,20.08
2023-10-08T07:55:19.577Z,17.42
2023-10-08T07:57:47.705Z,17.80
2023-10-08T08:00:27.260Z,19.85
2023-10-08T08:02:56.648Z,16.88
2023-10-08T08:05:26.732Z,17.40
2023-10-08T08:08:03.107Z,14.43
2023-10-08T08:10:30.672Z,17.00
2023-10-08T08:12:58.412Z,14.02
2023-10-08T08:15:31.052Z,20.55
2023-10-08T08:17:58.777Z,17.13
2023-10-08T08:20:40.136Z,12.85
2023-10-08T08:23:10.456Z,12.02
2023-10-08T08:25:47.345Z,11.75
2023-10-08T08:28:22.180Z,15.55
2023-10-08T08:30:53.999Z,11.18
2023-10-08T08:33:27.954Z,20.48
2023-10-08T08:36:02.524Z,13.90
2023-10-08T08:38:33.973Z,12.63
2023-10-08T08:41:08.245Z,13.95
2023-10-08T08:43:37.459Z,12.93
2023-10-08T08:46:08.772Z,10.55
2023-10-08T08:48:40.123Z,13.73
2023-10-08T08:51:13.564Z,11.50
2023-10-08T08:53:42.602Z,11.75
2023-10-08T08:56:11.190Z,9.93
2023-10-08T08:58:39.871Z,10.15
2023-10-08T09:01:14.160Z,10.35
2023-10-08T09:03:41.761Z,11.32
2023-10-08T09:06:09.545Z,10.35
2023-10-08T09:08:37.942Z,9.55
2023-10-08T09:11:06.082Z,11.07
2023-10-08T09:13:34.523Z,10.15
2023-10-08T09:16:28.901Z,8.90
2023-10-08T09:18:56.357Z,9.95
2023-10-08T09:21:24.448Z,10.23
2023-10-08T09:23:53.149Z,9.25
2023-10-08T09:26:28.370Z,8.93
2023-10-08T09:28:55.967Z,10.50
2023-10-08T09:31:26.559Z,11.80
2023-10-08T09:33:58.306Z,10.83
2023-10-08T09:36:33.351Z,11.75
2023-10-08T09:39:08.286Z,12.18
2023-10-08T09:41:38.066Z,9.57
2023-10-08T09:44:07.101Z,10.63
2023-10-08T09:46:36.501Z,9.60
2023-10-08T09:49:09.615Z,10.52
2023-10-08T09:51:41.267Z,11.75
2023-10-08T09:54:17.000Z,11.30
2023-10-08T09:56:46.264Z,9.48
2023-10-08T09:59:16.302Z,9.35
2023-10-08T10:01:56.072Z,9.52
2023-10-08T10:04:30.094Z,9.63
2023-10-08T10:07:14.021Z,10.57
2023-10-08T10:09:46.674Z,147.48
2023-10-08T10:12:19.078Z,16.50
2023-10-08T10:14:54.020Z,9.93
2023-10-08T10:17:42.410Z,13.32
2023-10-08T10:20:15.913Z,10.93
2023-10-08T10:22:45.845Z,11.00
2023-10-08T10:25:18.284Z,10.27
2023-10-08T10:27:52.664Z,12.10
2023-10-08T10:30:23.604Z,12.30
2023-10-08T10:35:22.985Z,12.10
2023-10-08T10:37:53.325Z,11.73
2023-10-08T10:40:42.668Z,11.40
2023-10-08T10:43:17.312Z,22.58
2023-10-08T10:45:45.772Z,12.63
2023-10-08T10:48:35.917Z,17.02
2023-10-08T10:51:06.413Z,18.60
2023-10-08T10:53:58.549Z,17.13
2023-10-08T10:56:32.608Z,154.80
2023-10-08T10:59:24.139Z,17.63
2023-10-08T11:02:06.701Z,15.00
2023-10-08T11:04:35.228Z,14.60
2023-10-08T11:07:02.944Z,12.48
2023-10-08T11:09:40.115Z,10.82
2023-10-08T11:12:13.186Z,12.55
2023-10-08T11:14:47.000Z,25.67
2023-10-08T11:17:19.229Z,12.68
2023-10-08T11:19:49.928Z,12.25
2023-10-08T11:22:17.824Z,11.20
2023-10-08T11:24:49.003Z,10.77
2023-10-08T11:27:30.250Z,12.63
2023-10-08T11:29:59.312Z,11.90
2023-10-08T11:32:28.122Z,14.63
2023-10-08T11:35:02.504Z,14.70
2023-10-08T11:37:37.189Z,12.65
2023-10-08T11:40:19.019Z,13.60
2023-10-08T11:42:46.536Z,59.30
2023-10-08T11:45:19.772Z,32.13
2023-10-08T11:47:50.132Z,17.40
2023-10-08T11:50:20.358Z,11.77
2023-10-08T11:52:48.073Z,13.47
2023-10-08T11:55:20.191Z,12.57
2023-10-08T11:57:51.862Z,13.63
2023-10-08T12:00:32.780Z,12.82
2023-10-08T12:03:03.592Z,11.35
2023-10-08T12:08:01.980Z,13.70
2023-10-08T12:10:32.843Z,14.43
2023-10-08T12:13:01.284Z,171.93
2023-10-08T12:15:35.816Z,24.38
2023-10-08T12:18:24.708Z,14.95
2023-10-08T12:20:53.998Z,19.55
2023-10-08T12:23:27.585Z,16.83
2023-10-08T12:25:57.927Z,12.23
2023-10-08T12:28:28.816Z,13.43
2023-10-08T12:31:01.957Z,15.98
2023-10-08T12:33:31.256Z,12.48
2023-10-08T12:36:12.473Z,15.45
2023-10-08T12:41:13.914Z,13.07
2023-10-08T12:43:53.918Z,18.43
2023-10-08T12:46:25.986Z,14.43
2023-10-08T12:48:56.219Z,14.32
2023-10-08T12:51:26.506Z,17.50
2023-10-08T12:54:05.199Z,13.73
2023-10-08T12:56:50.885Z,12.23
2023-10-08T12:59:26.464Z,17.90
2023-10-08T13:01:56.277Z,16.10
2023-10-08T13:04:36.358Z,14.80
2023-10-08T13:07:04.312Z,18.42
2023-10-08T13:09:38.624Z,53.92
2023-10-08T13:12:06.673Z,22.40
2023-10-08T13:14:43.254Z,15.30
2023-10-08T13:17:14.516Z,16.75
2023-10-08T13:19:42.798Z,16.90
2023-10-08T13:22:10.508Z,24.38
2023-10-08T13:24:38.453Z,13.93
2023-10-08T13:27:08.341Z,15.30
2023-10-08T13:29:39.277Z,14.38
2023-10-08T13:32:06.733Z,14.27
2023-10-08T13:34:34.297Z,18.80
2023-10-08T13:37:02.111Z,16.15
2023-10-08T13:39:29.536Z,15.20
2023-10-08T13:42:02.621Z,19.98
2023-10-08T13:44:31.235Z,17.50
2023-10-08T13:47:06.815Z,16.50
2023-10-08T13:49:35.100Z,16.88
2023-10-08T13:52:02.404Z,16.85
2023-10-08T13:54:36.960Z,37.78
2023-10-08T13:57:04.832Z,17.85
2023-10-08T13:59:35.269Z,18.67
2023-10-08T14:02:16.024Z,18.67
2023-10-08T14:04:47.286Z,18.65
2023-10-08T14:07:18.546Z,14.95
2023-10-08T14:09:49.038Z,17.58
2023-10-08T14:12:16.523Z,16.20
2023-10-08T14:14:46.127Z,16.35
2023-10-08T14:17:17.072Z,14.85
2023-10-08T14:19:48.070Z,15.80
2023-10-08T14:22:16.415Z,15.85
2023-10-08T14:24:47.231Z,14.60
2023-10-08T14:29:46.367Z,17.63
2023-10-08T14:32:16.993Z,18.55
2023-10-08T14:34:44.578Z,17.30
2023-10-08T14:37:32.818Z,14.73
2023-10-08T14:40:18.745Z,15.02
2023-10-08T14:43:01.649Z,14.30
2023-10-08T14:45:36.876Z,15.68
2023-10-08T14:48:13.179Z,13.50
2023-10-08T14:50:42.131Z,17.40
2023-10-08T14:53:09.623Z,14.30
2023-10-08T14:55:38.565Z,14.80
2023-10-08T14:58:11.869Z,15.13
2023-10-08T15:00:40.581Z,18.15
2023-10-08T15:03:10.278Z,14.68
2023-10-08T15:05:38.983Z,17.48
2023-10-08T15:08:11.944Z,19.58
2023-10-08T15:10:40.244Z,14.57
2023-10-08T15:13:08.514Z,15.50
2023-10-08T15:15:36.222Z,17.25
2023-10-08T15:18:04.205Z,17.08
2023-10-08T15:20:33.633Z,15.25
2023-10-08T15:23:01.394Z,18.02
2023-10-08T15:25:28.899Z,14.70
2023-10-08T15:27:56.315Z,15.80
2023-10-08T15:30:24.269Z,17.75
2023-10-08T15:32:52.037Z,21.20
2023-10-08T15:35:21.758Z,19.50
2023-10-08T15:37:49.800Z,15.75
2023-10-08T15:40:20.528Z,22.25
2023-10-08T15:42:56.524Z,21.07
2023-10-08T15:45:27.754Z,15.00
2023-10-08T15:47:55.638Z,15.25
2023-10-08T15:50:27.159Z,17.35
2023-10-08T15:52:56.406Z,19.50
2023-10-08T15:55:24.918Z,15.15
2023-10-08T15:57:53.492Z,15.68
2023-10-08T16:00:21.720Z,18.27
2023-10-08T16:02:49.466Z,21.80
2023-10-08T16:05:19.899Z,26.02
2023-10-08T16:07:47.697Z,14.57
2023-10-08T16:10:15.167Z,18.42
2023-10-08T16:12:42.549Z,46.65
2023-10-08T16:15:10.401Z,31.05
2023-10-08T16:17:40.443Z,26.05
2023-10-08T16:20:16.098Z,17.80
2023-10-08T16:22:49.003Z,17.63
2023-10-08T16:25:17.605Z,22.75
2023-10-08T16:27:49.802Z,20.75
2023-10-08T16:30:25.464Z,54.90
2023-10-08T16:32:57.218Z,19.73
2023-10-08T16:35:28.757Z,23.95
2023-10-08T16:37:56.562Z,18.45
2023-10-08T16:40:24.476Z,19.98
2023-10-08T16:42:51.881Z,29.73
2023-10-08T16:45:21.447Z,20.55
2023-10-08T16:47:49.451Z,27.17
2023-10-08T16:50:24.538Z,25.75
2023-10-08T16:52:55.801Z,23.02
2023-10-08T16:55:24.623Z,18.23
2023-10-08T16:57:51.976Z,20.20
2023-10-08T17:00:20.967Z,19.85
2023-10-08T17:02:48.502Z,17.85
2023-10-08T17:05:16.676Z,15.90
2023-10-08T17:07:45.010Z,19.27
2023-10-08T17:10:13.132Z,17.13
2023-10-08T17:12:41.479Z,16.33
2023-10-08T17:15:11.622Z,18.15
2023-10-08T17:17:39.616Z,21.20
2023-10-08T17:20:10.739Z,16.42
2023-10-08T17:22:39.080Z,17.17
2023-10-08T17:25:07.651Z,19.63
2023-10-08T17:27:36.471Z,18.27
2023-10-08T17:30:07.882Z,19.77
2023-10-08T17:32:37.094Z,19.50
2023-10-08T17:35:08.098Z,20.35
2023-10-08T17:37:38.657Z,18.85
2023-10-08T17:40:09.232Z,18.65
2023-10-08T17:42:36.853Z,16.65
2023-10-08T17:45:05.434Z,18.73
2023-10-08T17:47:32.899Z,16.55
2023-10-08T17:50:00.449Z,20.80
2023-10-08T17:52:27.821Z,21.60
2023-10-08T17:54:55.472Z,18.05
2023-10-08T17:57:22.821Z,24.48
2023-10-08T17:59:50.172Z,21.80
2023-10-08T18:02:20.172Z,24.25
2023-10-08T18:04:48.096Z,22.13
2023-10-08T18:07:16.764Z,22.02
2023-10-08T18:09:44.264Z,20.83
2023-10-08T18:12:11.983Z,20.25
2023-10-08T18:14:40.239Z,23.70
2023-10-08T18:17:07.981Z,23.73
2023-10-08T18:19:37.702Z,21.90
2023-10-08T18:22:05.364Z,22.48
2023-10-08T18:24:34.172Z,25.25
2023-10-08T18:27:02.049Z,31.20
2023-10-08T18:29:29.304Z,30.58
2023-10-08T18:31:56.851Z,24.45
2023-10-08T18:34:25.186Z,50.58
2023-10-08T18:36:52.565Z,50.63
2023-10-08T18:39:20.267Z,122.03
2023-10-08T18:41:48.241Z,68.72
2023-10-08T18:44:17.606Z,70.80
2023-10-08T18:46:46.605Z,96.63
2023-10-08T18:49:18.733Z,55.22
2023-10-08T18:51:47.048Z,34.92
2023-10-08T18:54:14.858Z,43.28
2023-10-08T18:56:43.244Z,51.50
2023-10-08T18:59:12.482Z,33.63
2023-10-08T19:01:45.203Z,40.92
2023-10-08T19:04:13.838Z,48.60
2023-10-08T19:06:41.248Z,53.88
2023-10-08T19:09:12.541Z,43.85
2023-10-08T19:11:40.117Z,29.02
2023-10-08T19:14:07.888Z,36.10
2023-10-08T19:16:35.733Z,26.95
2023-10-08T19:19:03.924Z,23.75
2023-10-08T19:21:31.346Z,25.10
2023-10-08T19:23:59.077Z,56.08
2023-10-08T19:26:29.284Z,67.57
2023-10-08T19:29:00.006Z,120.47
2023-10-08T19:31:28.076Z,127.03
2023-10-08T19:33:56.509Z,151.43
2023-10-08T19:36:24.517Z,115.07
2023-10-08T19:38:52.172Z,173.45
2023-10-08T19:41:23.221Z,93.72
2023-10-08T19:43:53.835Z,56.72
2023-10-08T19:46:25.060Z,31.52
2023-10-08T19:48:53.936Z,54.58
2023-10-08T19:51:23.672Z,33.10
2023-10-08T19:53:55.957Z,71.35
2023-10-08T19:56:24.374Z,31.25
2023-10-08T19:58:51.931Z,59.95
2023-10-08T20:01:21.157Z,53.45
2023-10-08T20:03:48.867Z,54.70
2023-10-08T20:06:16.589Z,46.92
2023-10-08T20:08:48.467Z,71.25
2023-10-08T20:11:15.977Z,80.32
2023-10-08T20:13:45.765Z,74.88
2023-10-08T20:16:13.931Z,162.60
2023-10-08T20:18:42.345Z,126.63
2023-10-08T20:21:09.827Z,47.67
2023-10-08T20:23:40.081Z,91.68
2023-10-08T20:26:22.556Z,103.55
2023-10-08T20:28:53.188Z,68.22
2023-10-08T20:31:22.589Z,64.03
2023-10-08T20:36:37.497Z,28.13
2023-10-08T20:39:05.120Z,26.80
2023-10-08T20:40:48.447Z,64.40
2023-10-08T20:41:33.965Z,44.05
2023-10-08T20:44:02.592Z,24.77
2023-10-08T20:46:31.752Z,69.82
2023-10-08T20:48:59.116Z,86.50
2023-10-08T20:51:27.553Z,44.78
2023-10-08T20:53:57.672Z,39.85
2023-10-08T20:56:25.481Z,43.20
2023-10-08T20:58:53.351Z,33.05
2023-10-08T21:01:22.714Z,200.70
2023-10-08T21:03:50.138Z,151.48
2023-10-08T21:06:22.222Z,110.05
2023-10-08T21:08:49.691Z,161.60
2023-10-08T21:11:18.031Z,141.02
2023-10-08T21:13:45.712Z,71.13
2023-10-08T21:16:16.570Z,54.95
2023-10-08T21:18:47.390Z,65.88
2023-10-08T21:21:19.331Z,38.38
2023-10-08T21:26:20.077Z,31.58
2023-10-08T21:28:47.380Z,33.47
2023-10-08T21:31:14.730Z,29.33
2023-10-08T21:33:42.294Z,41.97
2023-10-08T21:36:15.195Z,30.85
2023-10-08T21:38:43.477Z,38.33
2023-10-08T21:41:10.820Z,86.60
2023-10-08T21:43:40.094Z,62.22
2023-10-08T21:46:12.394Z,139.73
2023-10-08T21:48:39.890Z,301.20
2023-10-08T21:51:11.968Z,44.15
2023-10-08T21:53:39.924Z,32.72
2023-10-08T21:56:08.349Z,26.77
2023-10-08T21:58:35.794Z,36.53
2023-10-08T22:01:11.003Z,28.00
2023-10-08T22:03:42.183Z,34.28
2023-10-08T22:06:10.040Z,26.97
2023-10-08T22:08:39.104Z,26.73
2023-10-08T22:11:09.020Z,28.40
2023-10-08T22:13:38.849Z,26.92
2023-10-08T22:16:17.292Z,24.48
2023-10-08T22:18:58.308Z,23.52
2023-10-08T22:21:26.091Z,23.20
2023-10-08T22:23:56.071Z,30.20
2023-10-08T22:26:25.618Z,25.23
2023-10-08T22:28:55.539Z,23.17
2023-10-08T22:31:23.029Z,24.88
2023-10-08T22:33:50.546Z,26.65
2023-10-08T22:36:21.232Z,23.80
2023-10-08T22:38:51.925Z,20.15
2023-10-08T22:41:24.419Z,23.58
2023-10-08T22:43:55.724Z,22.08
2023-10-08T22:46:26.568Z,23.63
2023-10-08T22:49:04.841Z,28.33
2023-10-08T22:51:37.470Z,17.33
2023-10-08T22:54:09.413Z,18.58
2023-10-08T22:56:37.081Z,17.65
2023-10-08T22:59:09.170Z,17.67
2023-10-08T23:01:39.966Z,17.45
2023-10-08T23:04:08.369Z,15.50
2023-10-08T23:06:36.783Z,15.90
2023-10-08T23:09:04.383Z,28.00
2023-10-08T23:11:31.787Z,17.77
2023-10-08T23:14:04.459Z,19.08
2023-10-08T23:16:33.829Z,17.52
2023-10-08T23:19:03.034Z,16.40
2023-10-08T23:21:32.312Z,17.17
2023-10-08T23:23:59.655Z,20.00
2023-10-08T23:26:27.018Z,14.38
2023-10-08T23:28:55.360Z,14.05
2023-10-08T23:31:24.409Z,13.30
2023-10-08T23:33:52.770Z,13.32
2023-10-08T23:36:28.453Z,13.43
2023-10-08T23:39:08.453Z,14.77
2023-10-08T23:41:49.281Z,16.73
2023-10-08T23:44:26.578Z,13.07
2023-10-08T23:47:08.806Z,13.68
2023-10-08T23:49:48.757Z,11.27
2023-10-08T23:52:25.680Z,13.07
2023-10-08T23:55:03.385Z,11.13
2023-10-08T23:57:59.869Z,11.73
